createdAt,value
2023-03-31T00:00:23.576Z,3.15
2023-03-31T00:02:50.210Z,2.90
2023-03-31T00:05:18.221Z,2.92
2023-03-31T00:07:46.087Z,3.60
2023-03-31T00:10:18.334Z,3.03
2023-03-31T00:12:46.059Z,3.65
2023-03-31T00:15:12.779Z,3.70
2023-03-31T00:17:40.009Z,3.53
2023-03-31T00:20:12.523Z,3.35
2023-03-31T00:22:46.777Z,3.28
2023-03-31T00:25:14.693Z,2.75
2023-03-31T00:27:44.624Z,3.63
2023-03-31T00:30:13.235Z,3.05
2023-03-31T00:32:40.289Z,3.17
2023-03-31T00:35:07.211Z,3.60
2023-03-31T00:37:33.898Z,3.08
2023-03-31T00:40:00.909Z,3.13
2023-03-31T00:42:27.585Z,3.90
2023-03-31T00:45:16.331Z,4.50
2023-03-31T00:47:47.401Z,3.78
2023-03-31T00:50:21.399Z,4.18
2023-03-31T00:52:51.564Z,3.75
2023-03-31T00:55:24.835Z,3.72
2023-03-31T00:57:53.771Z,3.40
2023-03-31T01:00:21.980Z,3.83
2023-03-31T01:02:56.106Z,4.43
2023-03-31T01:05:29.275Z,4.43
2023-03-31T01:07:57.965Z,4.57
2023-03-31T01:10:24.649Z,4.63
2023-03-31T01:12:55.319Z,4.80
2023-03-31T01:15:22.701Z,4.90
2023-03-31T01:17:51.057Z,4.05
2023-03-31T01:20:37.737Z,4.60
2023-03-31T01:23:13.327Z,4.60
2023-03-31T01:26:04.981Z,4.05
2023-03-31T01:28:46.793Z,3.80
2023-03-31T01:31:50.299Z,4.80
2023-03-31T01:34:44.646Z,4.70
2023-03-31T01:37:21.291Z,4.55
2023-03-31T01:40:11.133Z,4.75
2023-03-31T01:42:48.857Z,4.22
2023-03-31T01:45:33.750Z,4.55
2023-03-31T01:48:13.043Z,5.03
2023-03-31T01:51:07.624Z,5.45
2023-03-31T01:53:58.684Z,4.45
2023-03-31T01:56:35.866Z,4.05
2023-03-31T01:59:14.518Z,3.80
2023-03-31T02:01:55.410Z,4.60
2023-03-31T02:04:48.843Z,4.38
2023-03-31T02:07:20.074Z,4.05
2023-03-31T02:09:51.936Z,4.47
2023-03-31T02:12:21.303Z,4.63
2023-03-31T02:14:52.360Z,4.15
2023-03-31T02:17:32.922Z,4.35
2023-03-31T02:20:09.194Z,4.38
2023-03-31T02:22:39.269Z,4.03
2023-03-31T02:25:09.721Z,4.60
2023-03-31T02:27:42.210Z,4.40
2023-03-31T02:30:11.005Z,4.43
2023-03-31T02:32:43.505Z,4.53
2023-03-31T02:35:18.808Z,4.03
2023-03-31T02:37:45.631Z,4.15
2023-03-31T02:40:19.458Z,4.53
2023-03-31T02:42:46.470Z,4.80
2023-03-31T02:45:37.844Z,4.05
2023-03-31T02:48:11.395Z,4.38
2023-03-31T02:51:01.839Z,4.25
2023-03-31T02:53:28.554Z,4.97
2023-03-31T02:56:13.346Z,4.10
2023-03-31T02:58:43.440Z,3.75
2023-03-31T03:01:18.909Z,4.15
2023-03-31T03:03:54.692Z,3.77
2023-03-31T03:06:27.917Z,3.55
2023-03-31T03:09:03.231Z,3.33
2023-03-31T03:11:47.448Z,3.22
2023-03-31T03:14:40.887Z,4.00
2023-03-31T03:17:28.481Z,3.90
2023-03-31T03:19:59.080Z,3.78
2023-03-31T03:22:25.697Z,4.47
2023-03-31T03:24:52.400Z,4.10
2023-03-31T03:27:22.399Z,3.45
2023-03-31T03:29:48.967Z,4.00
2023-03-31T03:32:15.701Z,3.95
2023-03-31T03:34:42.247Z,3.60
2023-03-31T03:37:08.874Z,4.22
2023-03-31T03:39:35.652Z,4.55
2023-03-31T03:42:02.349Z,4.00
2023-03-31T03:44:28.935Z,4.65
2023-03-31T03:46:55.627Z,4.53
2023-03-31T03:49:22.304Z,4.40
2023-03-31T03:51:48.897Z,4.43
2023-03-31T03:54:16.100Z,4.10
2023-03-31T03:56:42.732Z,4.03
2023-03-31T03:59:11.492Z,3.80
2023-03-31T04:01:38.202Z,3.65
2023-03-31T04:04:05.190Z,3.58
2023-03-31T04:06:31.770Z,3.67
2023-03-31T04:08:58.353Z,4.30
2023-03-31T04:11:25.061Z,4.72
2023-03-31T04:13:51.920Z,4.68
2023-03-31T04:16:18.524Z,3.95
2023-03-31T04:18:45.109Z,5.20
2023-03-31T04:21:22.649Z,4.10
2023-03-31T04:24:04.562Z,4.05
2023-03-31T04:26:43.282Z,3.70
2023-03-31T04:29:16.018Z,4.20
2023-03-31T04:31:44.064Z,8.38
2023-03-31T04:34:13.572Z,5.85
2023-03-31T04:36:47.818Z,4.63
2023-03-31T04:39:26.951Z,4.57
2023-03-31T04:41:54.114Z,4.10
2023-03-31T04:44:20.759Z,4.60
2023-03-31T04:46:47.408Z,5.95
2023-03-31T04:49:14.336Z,15.35
2023-03-31T04:51:41.106Z,8.68
2023-03-31T04:54:07.680Z,15.18
2023-03-31T04:56:34.242Z,7.22
2023-03-31T04:59:01.136Z,5.95
2023-03-31T05:01:27.762Z,11.90
2023-03-31T05:03:54.380Z,8.60
2023-03-31T05:06:21.030Z,7.63
2023-03-31T05:08:47.590Z,5.82
2023-03-31T05:11:14.196Z,5.60
2023-03-31T05:13:40.904Z,7.25
2023-03-31T05:16:09.826Z,12.57
2023-03-31T05:18:36.913Z,10.00
2023-03-31T05:21:18.040Z,10.32
2023-03-31T05:23:44.971Z,12.07
2023-03-31T05:26:12.193Z,11.23
2023-03-31T05:28:38.809Z,8.70
2023-03-31T05:31:06.830Z,9.48
2023-03-31T05:33:33.508Z,11.73
2023-03-31T05:36:00.502Z,11.00
2023-03-31T05:38:31.771Z,13.57
2023-03-31T05:40:58.534Z,11.60
2023-03-31T05:43:25.521Z,10.63
2023-03-31T05:45:52.226Z,9.30
2023-03-31T05:48:19.070Z,19.15
2023-03-31T05:50:46.118Z,10.30
2023-03-31T05:53:12.821Z,10.18
2023-03-31T05:55:39.481Z,11.02
2023-03-31T05:58:06.824Z,10.93
2023-03-31T06:00:33.585Z,10.30
2023-03-31T06:03:00.310Z,10.80
2023-03-31T06:05:26.976Z,12.70
2023-03-31T06:07:53.976Z,12.38
2023-03-31T06:10:20.717Z,13.00
2023-03-31T06:12:47.374Z,12.45
2023-03-31T06:15:14.154Z,12.25
2023-03-31T06:17:40.870Z,12.20
2023-03-31T06:20:20.114Z,12.73
2023-03-31T06:22:50.993Z,12.90
2023-03-31T06:25:17.689Z,14.27
2023-03-31T06:27:44.294Z,14.20
2023-03-31T06:30:11.346Z,14.95
2023-03-31T06:32:37.933Z,14.18
2023-03-31T06:35:07.699Z,15.75
2023-03-31T06:37:34.311Z,16.58
2023-03-31T06:40:00.943Z,17.13
2023-03-31T06:42:27.538Z,16.92
2023-03-31T06:44:55.829Z,18.67
2023-03-31T06:47:22.566Z,17.05
2023-03-31T06:49:49.660Z,15.80
2023-03-31T06:52:16.519Z,14.18
2023-03-31T06:54:43.200Z,17.15
2023-03-31T06:57:09.986Z,18.33
2023-03-31T06:59:36.634Z,18.52
2023-03-31T07:02:03.244Z,17.75
2023-03-31T07:04:29.961Z,16.88
2023-03-31T07:06:59.267Z,16.58
2023-03-31T07:09:26.039Z,16.63
2023-03-31T07:11:52.597Z,17.30
2023-03-31T07:14:19.154Z,16.80
2023-03-31T07:16:45.962Z,18.92
2023-03-31T07:19:13.516Z,18.83
2023-03-31T07:21:40.088Z,18.02
2023-03-31T07:24:06.784Z,20.10
2023-03-31T07:26:33.628Z,18.90
2023-03-31T07:29:00.418Z,18.25
2023-03-31T07:31:27.073Z,18.23
2023-03-31T07:33:53.670Z,19.85
2023-03-31T07:36:20.901Z,21.67
2023-03-31T07:38:49.571Z,21.40
2023-03-31T07:41:21.175Z,20.42
2023-03-31T07:43:49.048Z,22.38
2023-03-31T07:46:22.386Z,23.63
2023-03-31T07:48:49.776Z,30.75
2023-03-31T07:51:18.553Z,32.17
2023-03-31T07:53:46.044Z,38.67
2023-03-31T07:56:13.230Z,37.70
2023-03-31T07:58:39.857Z,38.85
2023-03-31T08:01:06.585Z,40.60
2023-03-31T08:03:34.502Z,40.58
2023-03-31T08:06:01.677Z,41.30
2023-03-31T08:08:28.206Z,42.90
2023-03-31T08:10:54.722Z,50.00
2023-03-31T08:13:22.007Z,48.03
2023-03-31T08:15:48.678Z,49.42
2023-03-31T08:18:15.737Z,49.80
2023-03-31T08:20:42.253Z,48.75
2023-03-31T08:23:11.464Z,48.80
2023-03-31T08:25:38.678Z,48.28
2023-03-31T08:28:06.953Z,49.17
2023-03-31T08:30:33.755Z,47.72
2023-03-31T08:33:00.563Z,48.53
2023-03-31T08:35:27.268Z,48.65
2023-03-31T08:37:53.863Z,47.42
2023-03-31T08:40:24.204Z,45.10
2023-03-31T08:42:56.089Z,41.03
2023-03-31T08:45:35.434Z,39.53
2023-03-31T08:48:14.898Z,34.15
2023-03-31T08:50:48.242Z,32.85
2023-03-31T08:53:24.157Z,31.48
2023-03-31T08:55:53.071Z,30.33
2023-03-31T08:58:52.209Z,26.88
2023-03-31T09:02:00.250Z,20.95
2023-03-31T09:04:32.870Z,22.13
2023-03-31T09:07:27.774Z,22.42
2023-03-31T09:10:09.365Z,22.10
2023-03-31T09:12:53.950Z,21.60
2023-03-31T09:15:28.447Z,20.77
2023-03-31T09:18:02.329Z,20.88
2023-03-31T09:20:34.284Z,23.15
2023-03-31T09:23:23.011Z,26.13
2023-03-31T09:25:49.640Z,25.15
2023-03-31T09:28:30.521Z,28.17
2023-03-31T09:30:57.918Z,27.42
2023-03-31T09:33:24.400Z,27.67
2023-03-31T09:35:52.216Z,26.27
2023-03-31T09:38:18.970Z,26.88
2023-03-31T09:40:45.648Z,26.70
2023-03-31T09:43:23.863Z,27.63
2023-03-31T09:46:14.751Z,29.30
2023-03-31T09:48:39.019Z,29.92
2023-03-31T09:51:14.723Z,29.90
2023-03-31T09:53:48.918Z,31.00
2023-03-31T09:56:33.056Z,30.92
2023-03-31T09:59:03.837Z,28.35
2023-03-31T10:01:30.701Z,30.45
2023-03-31T10:03:58.362Z,30.23
2023-03-31T10:06:26.261Z,30.90
2023-03-31T10:09:02.504Z,26.50
2023-03-31T10:11:29.672Z,26.75
2023-03-31T10:14:01.880Z,27.17
2023-03-31T10:16:33.096Z,26.30
2023-03-31T10:19:26.304Z,22.10
2023-03-31T10:22:02.114Z,16.30
2023-03-31T10:24:43.051Z,14.75
2023-03-31T10:27:29.917Z,13.75
2023-03-31T10:29:59.020Z,13.73
2023-03-31T10:32:41.689Z,11.13
2023-03-31T10:35:33.127Z,10.20
2023-03-31T10:38:11.089Z,9.32
2023-03-31T10:40:38.537Z,8.95
2023-03-31T10:43:18.486Z,9.35
2023-03-31T10:45:50.391Z,8.68
2023-03-31T10:48:23.906Z,10.32
2023-03-31T10:50:50.981Z,8.60
2023-03-31T10:53:18.503Z,8.50
2023-03-31T10:56:02.257Z,8.52
2023-03-31T10:58:42.595Z,9.02
2023-03-31T11:01:27.239Z,10.10
2023-03-31T11:04:19.243Z,9.43
2023-03-31T11:07:17.998Z,9.45
2023-03-31T11:09:53.247Z,11.30
2023-03-31T11:12:41.332Z,9.57
2023-03-31T11:15:13.701Z,9.90
2023-03-31T11:18:06.888Z,9.20
2023-03-31T11:20:33.477Z,9.35
2023-03-31T11:23:29.005Z,9.38
2023-03-31T11:26:02.306Z,9.07
2023-03-31T11:28:53.029Z,9.63
2023-03-31T11:32:05.150Z,10.30
2023-03-31T11:34:50.254Z,9.98
2023-03-31T11:37:35.470Z,9.85
2023-03-31T11:40:14.470Z,8.35
2023-03-31T11:43:12.069Z,9.82
2023-03-31T11:45:52.830Z,9.63
2023-03-31T11:48:51.772Z,9.77
2023-03-31T11:51:26.499Z,10.02
2023-03-31T11:53:56.284Z,10.55
2023-03-31T11:56:26.304Z,10.20
2023-03-31T11:58:56.393Z,9.10
2023-03-31T12:01:44.186Z,9.98
2023-03-31T12:04:25.628Z,8.35
2023-03-31T12:06:59.031Z,8.77
2023-03-31T12:09:54.161Z,7.30
2023-03-31T12:12:29.912Z,7.10
2023-03-31T12:15:11.419Z,6.35
2023-03-31T12:17:41.592Z,6.63
2023-03-31T12:20:31.620Z,6.93
2023-03-31T12:23:00.603Z,6.25
2023-03-31T12:25:45.880Z,5.78
2023-03-31T12:28:12.955Z,5.55
2023-03-31T12:30:43.307Z,4.50
2023-03-31T12:33:23.365Z,5.18
2023-03-31T12:36:01.838Z,4.45
2023-03-31T12:39:03.745Z,5.22
2023-03-31T12:41:35.012Z,5.32
2023-03-31T12:44:25.629Z,5.50
2023-03-31T12:47:24.407Z,5.05
2023-03-31T12:50:30.423Z,4.82
2023-03-31T12:53:32.436Z,6.10
2023-03-31T12:55:59.551Z,5.05
2023-03-31T12:58:33.988Z,5.00
2023-03-31T13:01:07.195Z,5.20
2023-03-31T13:03:34.157Z,5.57
2023-03-31T13:06:04.351Z,5.07
2023-03-31T13:08:54.778Z,5.70
2023-03-31T13:11:44.760Z,5.40
2023-03-31T13:14:22.029Z,4.88
2023-03-31T13:16:50.061Z,5.25
2023-03-31T13:19:36.378Z,5.05
2023-03-31T13:22:05.508Z,5.38
2023-03-31T13:24:33.214Z,5.13
2023-03-31T13:27:33.656Z,5.30
2023-03-31T13:30:00.501Z,5.63
2023-03-31T13:32:27.634Z,5.13
2023-03-31T13:35:07.738Z,4.05
2023-03-31T13:38:03.584Z,3.15
2023-03-31T13:40:39.157Z,3.08
2023-03-31T13:43:09.394Z,2.28
2023-03-31T13:45:50.499Z,2.10
2023-03-31T13:48:29.318Z,3.03
2023-03-31T13:51:02.096Z,4.28
2023-03-31T13:54:02.662Z,3.42
2023-03-31T13:56:59.408Z,2.45
2023-03-31T14:00:04.762Z,2.75
2023-03-31T14:02:34.104Z,2.88
2023-03-31T14:05:36.191Z,2.33
2023-03-31T14:08:12.085Z,2.17
2023-03-31T14:10:42.181Z,2.95
2023-03-31T14:13:17.020Z,3.10
2023-03-31T14:15:54.401Z,3.85
2023-03-31T14:18:34.231Z,5.35
2023-03-31T14:21:32.284Z,4.18
2023-03-31T14:24:23.037Z,4.97
2023-03-31T14:27:20.630Z,3.97
2023-03-31T14:30:01.584Z,4.07
2023-03-31T14:32:38.570Z,3.17
2023-03-31T14:35:38.990Z,3.67
2023-03-31T14:38:20.879Z,3.40
2023-03-31T14:40:50.917Z,3.25
2023-03-31T14:43:23.337Z,3.53
2023-03-31T14:46:00.783Z,3.65
2023-03-31T14:48:29.418Z,6.07
2023-03-31T14:51:02.243Z,7.10
2023-03-31T14:53:29.257Z,6.55
2023-03-31T14:56:03.040Z,6.85
2023-03-31T14:58:34.953Z,8.40
2023-03-31T15:01:05.231Z,11.10
2023-03-31T15:03:33.573Z,9.27
2023-03-31T15:06:02.999Z,5.78
2023-03-31T15:08:32.123Z,5.38
2023-03-31T15:11:11.914Z,5.15
2023-03-31T15:14:03.538Z,4.68
2023-03-31T15:16:31.908Z,4.25
2023-03-31T15:19:01.023Z,4.40
2023-03-31T15:21:31.898Z,4.50
2023-03-31T15:23:59.000Z,4.47
2023-03-31T15:26:41.952Z,5.35
2023-03-31T15:29:21.730Z,5.40
2023-03-31T15:31:48.929Z,7.10
2023-03-31T15:34:35.962Z,8.80
2023-03-31T15:37:03.474Z,8.60
2023-03-31T15:39:33.083Z,11.25
2023-03-31T15:42:03.801Z,8.75
2023-03-31T15:44:45.039Z,8.00
2023-03-31T15:47:25.425Z,8.00
2023-03-31T15:49:56.234Z,7.95
2023-03-31T15:52:34.212Z,4.53
2023-03-31T15:55:01.944Z,3.90
2023-03-31T15:57:34.779Z,3.10
2023-03-31T16:00:02.593Z,3.63
2023-03-31T16:02:43.342Z,3.63
2023-03-31T16:08:44.931Z,3.70
2023-03-31T16:11:28.737Z,2.95
2023-03-31T16:14:00.214Z,2.97
2023-03-31T16:16:29.786Z,2.75
2023-03-31T16:19:07.353Z,2.95
2023-03-31T16:21:40.494Z,3.17
2023-03-31T16:24:07.847Z,2.83
2023-03-31T16:26:35.649Z,2.70
2023-03-31T16:29:02.830Z,2.30
2023-03-31T16:31:35.937Z,2.30
2023-03-31T16:34:05.367Z,2.53
2023-03-31T16:36:31.988Z,2.15
2023-03-31T16:39:01.852Z,1.95
2023-03-31T16:41:29.662Z,1.75
2023-03-31T16:43:56.334Z,2.03
2023-03-31T16:46:24.242Z,2.00
2023-03-31T16:48:51.740Z,2.30
2023-03-31T16:51:19.248Z,2.25
2023-03-31T16:53:47.405Z,2.10
2023-03-31T16:56:14.509Z,1.98
2023-03-31T16:58:41.754Z,2.03
2023-03-31T17:01:08.922Z,1.80
2023-03-31T17:03:37.340Z,1.55
2023-03-31T17:06:07.957Z,2.05
2023-03-31T17:08:34.709Z,1.90
2023-03-31T17:11:27.427Z,1.70
2023-03-31T17:13:55.721Z,1.85
2023-03-31T17:16:29.723Z,1.38
2023-03-31T17:19:06.987Z,1.70
2023-03-31T17:21:33.530Z,2.03
2023-03-31T17:24:01.868Z,2.03
2023-03-31T17:26:29.718Z,2.10
2023-03-31T17:28:56.316Z,1.80
2023-03-31T17:31:24.505Z,1.75
2023-03-31T17:33:51.138Z,1.83
2023-03-31T17:36:17.881Z,1.85
2023-03-31T17:38:45.054Z,1.90
2023-03-31T17:41:13.406Z,1.65
2023-03-31T17:43:40.428Z,1.40
2023-03-31T17:46:11.793Z,1.08
2023-03-31T17:48:39.754Z,1.38
2023-03-31T17:51:13.861Z,1.40
2023-03-31T17:53:47.794Z,0.95
2023-03-31T17:56:16.073Z,0.82
2023-03-31T17:58:42.943Z,1.63
2023-03-31T18:01:11.765Z,1.42
2023-03-31T18:03:38.515Z,1.42
2023-03-31T18:06:11.667Z,0.90
2023-03-31T18:08:39.223Z,1.15
2023-03-31T18:11:06.992Z,1.30
2023-03-31T18:13:34.870Z,1.38
2023-03-31T18:16:01.786Z,1.40
2023-03-31T18:18:29.049Z,1.30
2023-03-31T18:20:56.264Z,1.40
2023-03-31T18:23:23.448Z,1.33
2023-03-31T18:25:50.036Z,1.27
2023-03-31T18:28:17.776Z,0.95
2023-03-31T18:30:44.813Z,1.40
2023-03-31T18:33:12.816Z,1.35
2023-03-31T18:35:39.892Z,1.48
2023-03-31T18:38:07.211Z,1.40
2023-03-31T18:40:34.012Z,1.58
2023-03-31T18:43:00.628Z,2.20
2023-03-31T18:45:28.176Z,2.55
2023-03-31T18:47:55.066Z,4.00
2023-03-31T18:50:23.345Z,3.95
2023-03-31T18:52:54.566Z,3.47
2023-03-31T18:55:22.232Z,3.25
2023-03-31T18:57:49.172Z,2.38
2023-03-31T19:00:17.124Z,3.08
2023-03-31T19:02:43.864Z,4.97
2023-03-31T19:05:10.569Z,4.30
2023-03-31T19:07:37.154Z,3.50
2023-03-31T19:10:03.908Z,2.85
2023-03-31T19:12:30.462Z,3.50
2023-03-31T19:14:57.116Z,4.45
2023-03-31T19:17:23.933Z,5.68
2023-03-31T19:19:50.662Z,3.90
2023-03-31T19:22:17.421Z,2.40
2023-03-31T19:24:45.171Z,1.90
2023-03-31T19:27:12.663Z,1.95
2023-03-31T19:29:39.275Z,1.67
2023-03-31T19:32:06.394Z,2.10
2023-03-31T19:34:33.868Z,1.35
2023-03-31T19:37:02.027Z,1.85
2023-03-31T19:39:28.723Z,1.83
2023-03-31T19:41:55.726Z,1.92
2023-03-31T19:44:22.540Z,1.42
2023-03-31T19:46:49.250Z,1.95
2023-03-31T19:49:15.800Z,1.08
2023-03-31T19:51:42.410Z,1.33
2023-03-31T19:54:10.945Z,0.98
2023-03-31T19:56:38.170Z,1.00
2023-03-31T19:59:05.691Z,1.10
2023-03-31T20:01:33.166Z,1.10
2023-03-31T20:03:59.872Z,1.20
2023-03-31T20:06:28.880Z,0.80
2023-03-31T20:08:58.748Z,1.55
2023-03-31T20:11:27.522Z,1.10
2023-03-31T20:13:54.748Z,1.27
2023-03-31T20:16:24.694Z,1.15
2023-03-31T20:18:56.712Z,1.10
2023-03-31T20:21:26.272Z,1.33
2023-03-31T20:23:52.977Z,0.98
2023-03-31T20:26:23.799Z,0.73
2023-03-31T20:28:51.864Z,0.65
2023-03-31T20:31:21.656Z,0.90
2023-03-31T20:33:49.099Z,0.85
2023-03-31T20:36:18.294Z,0.80
2023-03-31T20:38:47.625Z,0.60
2023-03-31T20:41:15.680Z,0.40
2023-03-31T20:43:42.503Z,0.88
2023-03-31T20:46:10.085Z,0.80
2023-03-31T20:48:44.739Z,0.80
2023-03-31T20:51:14.732Z,0.70
2023-03-31T20:53:47.606Z,0.55
2023-03-31T20:56:32.360Z,0.63
2023-03-31T20:58:59.919Z,0.57
2023-03-31T21:01:32.617Z,0.80
2023-03-31T21:04:01.695Z,0.70
2023-03-31T21:06:31.155Z,0.73
2023-03-31T21:08:58.239Z,0.60
2023-03-31T21:11:25.384Z,0.68
2023-03-31T21:13:53.214Z,0.50
2023-03-31T21:16:21.178Z,1.05
2023-03-31T21:18:48.109Z,0.70
2023-03-31T21:21:18.763Z,0.50
2023-03-31T21:23:46.690Z,0.70
2023-03-31T21:26:15.714Z,0.50
2023-03-31T21:28:43.421Z,1.10
2023-03-31T21:31:15.276Z,0.80
2023-03-31T21:33:43.441Z,0.77
2023-03-31T21:36:15.598Z,0.70
2023-03-31T21:38:42.756Z,0.82
2023-03-31T21:41:22.637Z,0.90
2023-03-31T21:43:49.889Z,1.05
2023-03-31T21:46:26.096Z,0.70
2023-03-31T21:48:53.715Z,0.98
2023-03-31T21:51:22.346Z,0.75
2023-03-31T21:53:50.270Z,0.90
2023-03-31T21:56:17.058Z,0.70
2023-03-31T21:58:43.650Z,0.90
2023-03-31T22:01:10.337Z,0.95
2023-03-31T22:03:38.389Z,0.80
2023-03-31T22:06:07.274Z,0.90
2023-03-31T22:08:36.577Z,0.80
2023-03-31T22:11:05.217Z,0.77
2023-03-31T22:13:31.859Z,1.05
2023-03-31T22:16:00.339Z,0.95
2023-03-31T22:18:28.003Z,1.05
2023-03-31T22:20:56.839Z,1.00
2023-03-31T22:23:24.392Z,1.17
2023-03-31T22:25:51.330Z,1.20
2023-03-31T22:28:18.202Z,1.17
2023-03-31T22:30:45.225Z,1.58
2023-03-31T22:33:12.076Z,1.23
2023-03-31T22:35:38.787Z,1.45
2023-03-31T22:38:06.526Z,2.10
2023-03-31T22:40:34.979Z,1.42
2023-03-31T22:43:01.974Z,1.58
2023-03-31T22:45:28.647Z,1.05
2023-03-31T22:47:55.489Z,0.88
2023-03-31T22:50:22.661Z,1.15
2023-03-31T22:52:49.425Z,0.70
2023-03-31T22:55:16.156Z,0.80
2023-03-31T22:57:42.820Z,0.90
2023-03-31T23:00:10.509Z,1.08
2023-03-31T23:02:37.158Z,1.27
2023-03-31T23:05:03.987Z,0.80
2023-03-31T23:07:30.539Z,0.45
2023-03-31T23:09:57.095Z,1.17
2023-03-31T23:12:27.479Z,0.90
2023-03-31T23:14:54.433Z,0.85
2023-03-31T23:17:21.042Z,0.73
2023-03-31T23:19:48.140Z,0.80
2023-03-31T23:22:14.705Z,0.80
2023-03-31T23:24:42.504Z,0.57
2023-03-31T23:27:09.191Z,0.52
2023-03-31T23:29:36.177Z,0.50
2023-03-31T23:32:03.715Z,0.70
2023-03-31T23:34:30.530Z,0.60
2023-03-31T23:36:57.288Z,0.70
2023-03-31T23:39:23.884Z,0.80
2023-03-31T23:41:51.155Z,0.90
2023-03-31T23:44:18.053Z,0.82
2023-03-31T23:46:44.670Z,0.80
2023-03-31T23:49:11.780Z,1.17
2023-03-31T23:51:38.368Z,0.63
2023-03-31T23:54:05.014Z,0.90
2023-03-31T23:56:31.616Z,0.75
2023-03-31T23:58:58.408Z,0.63
